Terminal Aerodrome Forecast
Issued by NWS

Current Version | Previous Version | Graphics & Text | Print | Product List | Glossary On
Versions: 1 2 3 4 5 6 7 8 9 10 11 12 13 14 15 16 17 18 19 20 21 22 23 24 25 26 27 28 29
000
FTUS41 KILN 211739
TAFLUK
TAF
KLUK 211739Z 2118/2218 34011KT P6SM -SHRA OVC009
     FM212100 01011KT P6SM OVC012
     FM220200 03013KT 2SM -SHRA BR OVC009
     FM221400 06010KT P6SM OVC012=

USA.gov is the U.S. government's official web portal to all federal, state and local government web resources and services.